Time;durP1;ratioP1;P1;durP2;ratioP2;P2;SDS_P1;SDS_P2;PMS_P1;PMS_P2;Temp;Humidity;BMP_temperature;BMP_pressure;BME280_temperature;BME280_humidity;BME280_pressure;Samples;Min_cycle;Max_cycle;Signal;HPM_P1;HPM_P2
2023/10/07 00:01:22;;;;;;;6.43;5.78;;;;;;;6.79;82.00;96392.78;6294332;28;20044;-67
2023/10/07 00:04:30;;;;;;;10.40;6.45;;;;;;;6.74;82.19;96393.91;6293295;28;20048;-68
2023/10/07 00:07:32;;;;;;;9.60;7.32;;;;;;;6.69;82.32;96385.47;6293451;28;20074;-67
2023/10/07 00:10:37;;;;;;;8.50;6.45;;;;;;;6.67;82.74;96384.69;6295109;28;20041;-68
2023/10/07 00:13:42;;;;;;;13.65;8.40;;;;;;;6.59;82.77;96381.69;6294787;28;20045;-67
2023/10/07 00:16:54;;;;;;;9.35;7.07;;;;;;;6.51;83.03;96386.50;6294030;28;20040;-67
2023/10/07 00:19:58;;;;;;;11.32;7.15;;;;;;;6.43;83.31;96383.50;6294354;28;20043;-67
2023/10/07 00:23:04;;;;;;;11.27;7.78;;;;;;;6.49;83.07;96391.81;6294649;28;20036;-68
2023/10/07 00:26:09;;;;;;;8.85;6.97;;;;;;;6.49;83.21;96390.97;6294573;28;20177;-67
2023/10/07 00:29:12;;;;;;;11.10;7.72;;;;;;;6.50;83.28;96387.44;6294225;28;20408;-67
2023/10/07 00:32:24;;;;;;;9.40;6.97;;;;;;;6.49;83.39;96380.53;6294318;28;20047;-66
2023/10/07 00:35:28;;;;;;;9.48;6.97;;;;;;;6.48;83.50;96378.81;6293454;28;20060;-67
2023/10/07 00:38:42;;;;;;;10.60;7.45;;;;;;;6.43;83.20;96370.44;6276380;28;20044;-67
2023/10/07 00:41:48;;;;;;;12.50;9.65;;;;;;;6.32;83.31;96365.81;6294418;28;20041;-67
2023/10/07 00:44:53;;;;;;;11.70;8.48;;;;;;;6.21;83.54;96358.56;6294323;28;20045;-68
2023/10/07 00:48:00;;;;;;;12.35;7.45;;;;;;;6.19;83.39;96356.94;6293461;28;20052;-67
2023/10/07 00:51:11;;;;;;;12.95;7.30;;;;;;;6.14;83.71;96358.97;6292880;28;20052;-68
2023/10/07 00:54:18;;;;;;;9.63;7.53;;;;;;;6.08;83.74;96363.59;6276538;28;20045;-66
2023/10/07 01:03:51;;;;;;;11.65;8.18;;;;;;;6.02;84.12;96361.31;6293985;28;20040;-68
2023/10/07 01:07:03;;;;;;;14.18;8.50;;;;;;;6.01;84.05;96364.03;6293803;28;20053;-67
2023/10/07 01:13:29;;;;;;;12.73;8.30;;;;;;;6.02;84.03;96356.09;6293118;28;20053;-67
2023/10/07 01:19:51;;;;;;;10.30;7.90;;;;;;;5.93;83.75;96340.94;6297920;28;20055;-68
2023/10/07 01:23:04;;;;;;;12.48;8.15;;;;;;;5.79;83.91;96346.88;6298336;28;20127;-67
2023/10/07 01:26:20;;;;;;;12.40;8.00;;;;;;;5.82;83.87;96346.72;6297543;28;20055;-67
2023/10/07 01:29:28;;;;;;;13.77;9.35;;;;;;;5.80;84.00;96353.81;6297737;28;20075;-66
2023/10/07 01:32:33;;;;;;;8.65;7.63;;;;;;;5.76;83.71;96354.88;6297250;28;20067;-68
2023/10/07 01:35:39;;;;;;;11.93;7.85;;;;;;;5.75;83.74;96353.22;6297755;28;20507;-67
2023/10/07 01:38:51;;;;;;;11.80;8.10;;;;;;;5.75;83.86;96348.00;6298252;28;20036;-67
2023/10/07 01:42:01;;;;;;;10.95;7.82;;;;;;;5.72;83.92;96350.78;6298212;28;20040;-67
2023/10/07 01:45:20;;;;;;;14.45;8.85;;;;;;;5.75;83.74;96352.38;6298016;28;20044;-67
2023/10/07 01:48:24;;;;;;;12.75;9.07;;;;;;;5.77;83.86;96359.16;6297760;28;20041;-68
2023/10/07 01:51:29;;;;;;;12.98;8.38;;;;;;;5.80;83.63;96356.44;6297600;28;20040;-67
2023/10/07 01:54:33;;;;;;;10.85;8.48;;;;;;;5.79;83.67;96351.28;6279945;28;20067;-67
2023/10/07 01:57:40;;;;;;;12.48;8.93;;;;;;;5.84;83.44;96363.16;6297900;28;20044;-68
2023/10/07 02:00:51;;;;;;;11.35;8.07;;;;;;;5.88;83.90;96357.75;6278890;28;20419;-67
2023/10/07 02:03:58;;;;;;;12.43;8.18;;;;;;;5.87;83.33;96377.81;6296733;28;20055;-67
2023/10/07 02:07:02;;;;;;;12.10;8.05;;;;;;;5.87;83.69;96377.81;6280093;28;20037;-68
2023/10/07 02:10:04;;;;;;;11.80;7.78;;;;;;;5.86;83.39;96370.91;6297056;28;20057;-67
2023/10/07 02:13:14;;;;;;;;;;;;;;;5.87;83.42;96371.75;6297815;28;20036;-66
2023/10/07 02:16:19;;;;;;;11.90;8.23;;;;;;;6.03;83.09;96380.47;6297351;28;19920;-68
2023/10/07 02:19:27;;;;;;;12.45;8.90;;;;;;;6.07;82.95;96374.16;6297198;28;20044;-67
2023/10/07 02:22:52;;;;;;;12.77;8.57;;;;;;;6.16;82.70;96385.84;6279764;28;20488;-68
2023/10/07 02:25:58;;;;;;;11.23;8.52;;;;;;;6.22;82.26;96388.97;6296351;28;20041;-67
2023/10/07 02:29:13;;;;;;;12.63;8.60;;;;;;;6.23;82.07;96382.00;6297166;28;20075;-67
2023/10/07 02:32:17;;;;;;;12.20;8.73;;;;;;;6.35;82.15;96385.69;6296126;28;20044;-66
2023/10/07 02:35:30;;;;;;;10.98;7.78;;;;;;;6.36;81.87;96385.59;6297127;28;20059;-66
2023/10/07 02:38:38;;;;;;;12.27;7.90;;;;;;;6.38;82.15;96383.75;6296862;28;20036;-67
2023/10/07 02:41:46;;;;;;;8.80;7.07;;;;;;;6.41;82.00;96382.72;6296223;28;20048;-66
2023/10/07 02:45:39;;;;;;;9.82;7.57;;;;;;;6.57;81.57;96386.16;6297039;28;20139;-67
2023/10/07 02:48:34;;;;;;;9.32;6.68;;;;;;;6.57;80.94;96391.41;6294663;28;20061;-67
2023/10/07 02:51:45;;;;;;;10.57;7.35;;;;;;;6.59;81.15;96386.91;6267526;28;20052;-67
2023/10/07 02:55:11;;;;;;;10.23;6.65;;;;;;;6.62;81.06;96376.28;6271171;28;20053;-68
2023/10/07 02:58:08;;;;;;;9.02;7.88;;;;;;;6.79;80.41;96377.09;6271153;28;20045;-66
2023/10/07 03:01:16;;;;;;;9.82;7.60;;;;;;;6.93;79.81;96374.50;6270938;28;20049;-68
2023/10/07 03:04:22;;;;;;;9.68;6.63;;;;;;;6.98;79.69;96372.47;6270721;28;20044;-67
2023/10/07 03:07:24;;;;;;;10.38;6.78;;;;;;;7.06;79.62;96378.09;6270574;28;20075;-68
2023/10/07 03:10:44;;;;;;;9.45;6.82;;;;;;;7.15;79.61;96369.69;6270424;28;20052;-68
2023/10/07 03:13:59;;;;;;;10.50;6.28;;;;;;;7.36;79.28;96371.97;6253301;28;20171;-67
2023/10/07 03:17:15;;;;;;;10.45;6.65;;;;;;;7.49;79.09;96375.53;6251382;28;20086;-67
2023/10/07 03:23:26;;;;;;;10.98;7.55;;;;;;;7.62;79.01;96368.63;6270239;28;20049;-67
2023/10/07 03:26:32;;;;;;;9.13;6.80;;;;;;;7.71;78.86;96369.00;6253538;28;20515;-66
2023/10/07 03:29:59;;;;;;;39.10;22.67;;;;;;;7.79;78.95;96379.84;6253511;28;20511;-67
2023/10/07 03:33:08;;;;;;;9.40;7.65;;;;;;;7.98;78.45;96379.53;6270813;28;20045;-66
2023/10/07 03:39:42;;;;;;;9.20;7.47;;;;;;;8.20;77.83;96373.78;6252941;28;20049;-68
2023/10/07 03:42:46;;;;;;;8.85;6.65;;;;;;;8.28;77.31;96371.53;6270706;28;20423;-67
2023/10/07 03:45:50;;;;;;;9.30;7.05;;;;;;;8.41;76.96;96371.63;6253134;28;20037;-66
2023/10/07 03:48:55;;;;;;;8.93;6.15;;;;;;;8.44;76.88;96367.03;6252258;28;20044;-67
2023/10/07 03:52:07;;;;;;;13.40;8.18;;;;;;;8.62;76.60;96374.63;6283531;28;20499;-67
2023/10/07 03:55:14;;;;;;;9.57;7.22;;;;;;;8.76;76.41;96371.97;6294344;28;20040;-68
2023/10/07 03:58:22;;;;;;;9.07;6.68;;;;;;;8.90;75.91;96369.25;6294909;28;20040;-67
2023/10/07 04:01:26;;;;;;;8.88;6.78;;;;;;;9.04;75.61;96365.72;6293874;28;20049;-68
2023/10/07 04:04:31;;;;;;;9.75;6.13;;;;;;;9.15;75.26;96357.13;6294602;28;20049;-67
2023/10/07 04:07:37;;;;;;;8.50;5.78;;;;;;;9.26;74.91;96354.63;6277125;28;20045;-67
2023/10/07 04:10:43;;;;;;;9.13;6.78;;;;;;;9.41;74.53;96356.19;6294377;28;20044;-67
2023/10/07 04:13:50;;;;;;;9.73;5.97;;;;;;;9.55;74.13;96355.25;6277295;28;20040;-66
2023/10/07 04:17:05;;;;;;;9.10;6.35;;;;;;;9.79;73.61;96360.56;6294535;28;20059;-66
2023/10/07 04:20:22;;;;;;;8.07;5.43;;;;;;;10.02;73.18;96363.38;6293868;28;20041;-67
2023/10/07 04:23:26;;;;;;;8.95;5.38;;;;;;;10.26;72.63;96359.00;6294325;28;20047;-66
2023/10/07 04:26:33;;;;;;;8.90;5.85;;;;;;;10.46;71.78;96356.78;6293583;28;20044;-66
2023/10/07 04:29:37;;;;;;;8.38;5.65;;;;;;;10.71;71.10;96358.44;6293572;28;20044;-66
2023/10/07 04:32:52;;;;;;;8.85;6.07;;;;;;;10.91;70.64;96357.81;6276642;28;20044;-66
2023/10/07 04:36:02;;;;;;;34.88;23.08;;;;;;;11.06;70.29;96358.44;6293302;28;20053;-66
2023/10/07 04:39:15;;;;;;;10.90;7.57;;;;;;;11.34;69.77;96359.00;6294006;28;20179;-67
2023/10/07 04:42:21;;;;;;;7.75;6.60;;;;;;;11.51;68.90;96353.28;6276096;28;20053;-67
2023/10/07 04:45:24;;;;;;;7.68;5.70;;;;;;;11.71;68.39;96356.19;6294182;28;20043;-66
2023/10/07 04:48:43;;;;;;;9.45;6.45;;;;;;;11.94;66.29;96352.59;6274839;28;20052;-66
2023/10/07 04:54:53;;;;;;;7.97;5.80;;;;;;;12.29;63.74;96343.72;6251550;28;20041;-67
2023/10/07 04:58:02;;;;;;;8.98;6.10;;;;;;;12.69;63.31;96348.41;6269043;28;20419;-67
2023/10/07 05:04:29;;;;;;;7.70;4.90;;;;;;;13.66;60.12;96346.47;6268337;28;20056;-67
2023/10/07 05:07:38;;;;;;;8.90;6.05;;;;;;;14.19;58.07;96351.56;6268061;28;20053;-67
2023/10/07 05:10:41;;;;;;;9.18;5.80;;;;;;;14.38;57.89;96346.34;6268356;28;20423;-66
2023/10/07 05:13:46;;;;;;;15.73;10.45;;;;;;;14.72;57.24;96351.28;6268892;28;20558;-67
2023/10/07 05:16:48;;;;;;;9.57;6.38;;;;;;;14.97;56.76;96351.72;6268811;28;20496;-66
2023/10/07 05:19:51;;;;;;;7.30;5.18;;;;;;;14.79;55.72;96347.09;6250858;28;20110;-67
2023/10/07 05:22:55;;;;;;;8.95;6.47;;;;;;;14.52;55.99;96346.94;6268532;28;20559;-68
2023/10/07 05:26:03;;;;;;;8.75;5.97;;;;;;;14.26;56.40;96342.09;6251203;28;20045;-67
2023/10/07 05:29:07;;;;;;;7.38;5.55;;;;;;;14.36;56.55;96342.97;6250737;28;20045;-68
2023/10/07 05:32:13;;;;;;;7.43;5.30;;;;;;;14.63;55.28;96338.03;6268769;28;20048;-67
2023/10/07 05:35:15;;;;;;;6.75;5.30;;;;;;;14.72;55.24;96343.34;6250825;28;20069;-66
2023/10/07 05:38:19;;;;;;;6.82;4.35;;;;;;;14.57;56.34;96344.72;6268246;28;20049;-67
2023/10/07 05:41:25;;;;;;;9.27;5.22;;;;;;;14.45;55.80;96336.03;6267580;28;20144;-66
2023/10/07 05:44:30;;;;;;;7.60;5.50;;;;;;;14.20;56.92;96340.00;6267928;28;20053;-66
2023/10/07 05:47:32;;;;;;;6.20;4.22;;;;;;;14.14;57.24;96337.91;6267338;28;20432;-67
2023/10/07 05:50:42;;;;;;;8.88;6.07;;;;;;;13.79;57.88;96331.22;6270660;28;20309;-67
2023/10/07 05:53:48;;;;;;;5.68;4.88;;;;;;;13.65;58.37;96331.59;6292582;28;20049;-67
2023/10/07 05:56:50;;;;;;;8.55;5.47;;;;;;;13.78;58.59;96324.25;6292297;28;20049;-67
2023/10/07 05:59:54;;;;;;;6.78;4.82;;;;;;;14.08;58.46;96333.16;6293574;28;20044;-66
2023/10/07 06:02:55;;;;;;;8.15;5.25;;;;;;;14.34;57.17;96329.03;6296555;28;20531;-67
2023/10/07 06:06:01;;;;;;;7.10;4.65;;;;;;;14.18;57.43;96336.63;6297665;28;20415;-67
2023/10/07 06:09:05;;;;;;;6.63;4.82;;;;;;;14.22;57.70;96324.84;6297221;28;20214;-66
2023/10/07 06:12:07;;;;;;;7.50;4.53;;;;;;;14.22;57.00;96329.28;6296537;28;20072;-66
2023/10/07 06:15:10;;;;;;;9.43;5.57;;;;;;;14.18;57.55;96331.34;6296355;28;20179;-66
2023/10/07 06:18:18;;;;;;;7.97;5.53;;;;;;;14.24;57.27;96324.69;6296736;28;20060;-67
2023/10/07 06:21:27;;;;;;;8.68;5.13;;;;;;;14.15;57.06;96318.38;6296672;28;20174;-67
2023/10/07 06:24:32;;;;;;;9.85;6.55;;;;;;;14.07;57.21;96315.63;6296147;28;20438;-67
2023/10/07 06:27:42;;;;;;;10.35;6.15;;;;;;;14.18;56.62;96323.41;6297104;28;20040;-67
2023/10/07 06:30:51;;;;;;;9.25;6.15;;;;;;;13.98;57.64;96319.03;6297050;28;20123;-68
2023/10/07 06:34:12;;;;;;;9.07;6.07;;;;;;;14.11;57.52;96311.72;6296179;28;20530;-66
2023/10/07 06:37:16;;;;;;;12.32;6.20;;;;;;;14.37;57.11;96312.88;6296950;28;20041;-66
2023/10/07 06:40:43;;;;;;;9.20;6.18;;;;;;;14.67;56.70;96308.50;6296671;28;20053;-67
2023/10/07 06:43:49;;;;;;;9.65;6.20;;;;;;;14.85;55.80;96313.09;6295766;28;20057;-67
2023/10/07 06:46:55;;;;;;;9.73;5.88;;;;;;;14.73;55.35;96315.88;6296423;28;20182;-67
2023/10/07 06:49:58;;;;;;;9.52;6.78;;;;;;;14.56;55.59;96301.53;6295878;28;20052;-68
2023/10/07 06:53:00;;;;;;;9.68;7.35;;;;;;;14.69;55.34;96300.41;6296276;28;20409;-68
2023/10/07 06:56:01;;;;;;;7.90;6.47;;;;;;;14.77;54.75;96296.06;6296348;28;20047;-67
2023/10/07 06:59:06;;;;;;;7.20;5.95;;;;;;;14.92;54.78;96287.72;6295611;28;20045;-66
2023/10/07 07:02:11;;;;;;;11.52;6.82;;;;;;;15.35;53.73;96281.94;6295234;28;20146;-67
2023/10/07 07:05:16;;;;;;;12.80;8.13;;;;;;;15.62;52.85;96288.25;6296024;28;20040;-67
2023/10/07 07:08:22;;;;;;;10.30;7.70;;;;;;;15.81;53.06;96276.78;6295320;28;20063;-67
2023/10/07 07:11:29;;;;;;;10.23;7.55;;;;;;;16.28;51.77;96271.38;6294988;28;20053;-67
2023/10/07 07:14:36;;;;;;;10.80;7.18;;;;;;;17.14;49.98;96281.47;6295140;28;20056;-67
2023/10/07 07:17:43;;;;;;;11.57;7.22;;;;;;;18.40;46.10;96280.84;6295796;28;20048;-68
2023/10/07 07:20:48;;;;;;;11.88;7.63;;;;;;;18.75;44.91;96278.94;6294866;28;20370;-67
2023/10/07 07:23:51;;;;;;;9.93;6.90;;;;;;;19.16;43.33;96289.59;6277135;28;20044;-67
2023/10/07 07:26:53;;;;;;;9.55;6.60;;;;;;;20.90;40.16;96276.31;6294707;28;20045;-67
2023/10/07 07:29:54;;;;;;;10.18;7.68;;;;;;;21.84;37.49;96284.88;6294437;28;20079;-67
2023/10/07 07:33:06;;;;;;;8.35;6.53;;;;;;;22.66;36.20;96283.88;6294527;28;20054;-67
2023/10/07 07:39:41;;;;;;;7.97;6.03;;;;;;;23.31;34.61;96280.19;6249812;28;20055;-67
2023/10/07 07:42:55;;;;;;;8.60;6.28;;;;;;;22.36;35.53;96278.59;6294886;28;20041;-68
2023/10/07 07:46:12;;;;;;;9.38;6.90;;;;;;;21.34;37.31;96286.31;6293663;28;20048;-67
2023/10/07 07:49:13;;;;;;;8.98;6.28;;;;;;;19.99;39.92;96272.47;6276511;28;20061;-67
2023/10/07 07:52:15;;;;;;;9.68;6.90;;;;;;;19.31;41.33;96272.94;6293816;28;20055;-68
2023/10/07 07:55:20;;;;;;;11.15;6.72;;;;;;;19.38;41.38;96263.25;6294693;28;20074;-67
2023/10/07 07:58:25;;;;;;;9.50;7.38;;;;;;;19.35;41.13;96264.41;6295046;28;20040;-67
2023/10/07 08:01:32;;;;;;;9.63;6.78;;;;;;;18.59;42.76;96252.22;6294439;28;20044;-67
2023/10/07 08:04:42;;;;;;;10.48;6.45;;;;;;;17.80;44.29;96240.16;6275312;28;20052;-67
2023/10/07 08:07:45;;;;;;;9.63;6.40;;;;;;;17.30;45.59;96239.06;6293190;28;20060;-67
2023/10/07 08:10:54;;;;;;;11.80;7.75;;;;;;;16.75;46.69;96239.28;6294599;28;20435;-67
2023/10/07 08:14:10;;;;;;;10.45;7.00;;;;;;;16.26;47.86;96236.19;6294276;28;20048;-67
2023/10/07 08:17:12;;;;;;;8.88;6.28;;;;;;;16.71;47.06;96251.22;6294039;28;20043;-68
2023/10/07 08:20:16;;;;;;;12.27;7.38;;;;;;;17.08;46.42;96235.09;6294237;28;20506;-67
2023/10/07 08:23:23;;;;;;;8.70;6.57;;;;;;;16.93;46.32;96224.19;6292231;28;20055;-68
2023/10/07 08:26:25;;;;;;;9.82;6.13;;;;;;;19.32;42.67;96218.56;6293538;28;20049;-68
2023/10/07 08:29:33;;;;;;;10.18;5.80;;;;;;;22.71;35.63;96225.13;6293316;28;20578;-67
2023/10/07 08:32:41;;;;;;;9.27;5.60;;;;;;;24.21;33.09;96218.59;6294007;28;20044;-67
2023/10/07 08:35:47;;;;;;;8.80;6.68;;;;;;;24.59;31.81;96221.63;6292940;28;20048;-67
2023/10/07 08:38:52;;;;;;;8.70;5.32;;;;;;;25.58;30.68;96221.91;6293982;28;20053;-67
2023/10/07 08:41:58;;;;;;;7.43;4.55;;;;;;;24.73;31.05;96222.47;6293927;28;20040;-68
2023/10/07 08:45:14;;;;;;;7.95;5.65;;;;;;;24.05;31.98;96209.00;6293264;28;20049;-67
2023/10/07 08:48:25;;;;;;;9.13;5.82;;;;;;;22.59;34.78;96213.22;6292956;28;20057;-67
2023/10/07 08:51:40;;;;;;;;;;;;;;;21.89;36.07;96209.31;6293838;28;20076;-67
2023/10/07 08:54:47;;;;;;;8.05;5.72;;;;;;;20.07;39.40;96200.34;6293629;28;19969;-67
2023/10/07 08:57:52;;;;;;;8.18;6.55;;;;;;;20.49;38.17;96192.88;6293006;28;20421;-67
2023/10/07 09:00:58;;;;;;;8.93;6.95;;;;;;;19.50;40.00;96195.19;6292977;28;20059;-67
2023/10/07 09:04:07;;;;;;;11.50;6.15;;;;;;;18.55;42.12;96198.44;6292473;28;20044;-67
2023/10/07 09:07:13;;;;;;;9.07;6.38;;;;;;;17.18;45.13;96181.81;6293435;28;20578;-68
2023/10/07 09:10:16;;;;;;;11.40;6.95;;;;;;;16.50;47.35;96180.66;6292900;28;20057;-67
2023/10/07 09:13:27;;;;;;;12.20;6.85;;;;;;;16.10;48.67;96176.59;6292876;28;20435;-67
2023/10/07 09:16:32;;;;;;;12.85;7.85;;;;;;;15.90;49.48;96185.69;6293563;28;20431;-67
2023/10/07 09:19:36;;;;;;;12.77;8.68;;;;;;;15.86;49.94;96177.22;6292799;28;20056;-67
2023/10/07 09:22:45;;;;;;;14.00;9.43;;;;;;;16.60;48.69;96177.91;6274996;28;20424;-66
2023/10/07 09:25:55;;;;;;;13.45;9.38;;;;;;;17.10;47.67;96179.09;6292313;28;20059;-68
2023/10/07 09:29:21;;;;;;;14.63;9.38;;;;;;;17.05;47.41;96176.94;6293279;28;20059;-66
2023/10/07 09:32:24;;;;;;;11.38;8.70;;;;;;;16.41;48.37;96165.63;6292310;28;20133;-68
2023/10/07 09:35:28;;;;;;;12.93;9.65;;;;;;;15.97;49.24;96159.41;6277367;28;20053;-67
2023/10/07 09:41:38;;;;;;;14.15;9.20;;;;;;;15.65;50.56;96161.53;6298075;28;20044;-67
2023/10/07 09:44:41;;;;;;;13.25;9.18;;;;;;;15.74;50.65;96153.69;6296991;28;20055;-67
2023/10/07 09:47:48;;;;;;;14.05;9.43;;;;;;;15.77;51.16;96159.53;6297254;28;20400;-67
2023/10/07 09:50:56;;;;;;;13.07;9.15;;;;;;;17.31;47.96;96157.47;6296831;28;20076;-68
2023/10/07 09:54:27;;;;;;;11.65;8.55;;;;;;;20.03;42.03;96150.09;6297443;28;20190;-67
2023/10/07 09:57:47;;;;;;;9.43;7.30;;;;;;;22.17;37.69;96158.56;6297780;28;20048;-68
2023/10/07 10:01:37;;;;;;;13.02;10.32;;;;;;;22.56;36.80;96151.94;6297721;28;20075;-68
2023/10/07 10:05:14;;;;;;;11.52;8.55;;;;;;;20.79;39.35;96156.44;6296705;28;20056;-67
2023/10/07 10:08:35;;;;;;;10.50;7.65;;;;;;;19.85;40.87;96150.38;6297396;28;20048;-68
2023/10/07 10:15:10;;;;;;;;;;;;;;;18.33;44.67;96153.81;6297126;28;20129;-68
2023/10/07 10:18:35;;;;;;;12.82;7.35;;;;;;;20.15;40.54;96154.84;6297488;28;19916;-67
2023/10/07 10:21:43;;;;;;;10.15;6.43;;;;;;;20.26;39.34;96147.44;6297146;28;20048;-67
2023/10/07 10:24:45;;;;;;;14.50;7.57;;;;;;;18.60;42.94;96142.00;6296383;28;20418;-67
2023/10/07 10:27:47;;;;;;;12.00;7.35;;;;;;;17.38;45.44;96135.41;6295999;28;20045;-67
2023/10/07 10:30:53;;;;;;;11.52;7.55;;;;;;;16.58;47.07;96135.53;6296296;28;20426;-67
2023/10/07 10:33:58;;;;;;;9.48;6.78;;;;;;;16.02;48.97;96125.28;6296541;28;20078;-68
2023/10/07 10:37:06;;;;;;;10.73;7.88;;;;;;;15.85;49.68;96125.16;6296185;28;20052;-68
2023/10/07 10:40:15;;;;;;;9.82;7.97;;;;;;;15.71;49.82;96118.53;6295648;28;20554;-67
2023/10/07 10:43:28;;;;;;;13.73;9.40;;;;;;;15.52;50.46;96117.78;6296338;28;20059;-68
2023/10/07 10:46:44;;;;;;;10.88;7.72;;;;;;;15.38;50.66;96111.16;6295254;28;20458;-67
2023/10/07 10:49:49;;;;;;;12.23;8.32;;;;;;;15.18;50.99;96115.72;6295560;28;20059;-66
2023/10/07 10:52:54;;;;;;;11.15;8.23;;;;;;;15.18;51.31;96105.97;6277748;28;20055;-67
2023/10/07 10:55:56;;;;;;;13.55;8.65;;;;;;;15.36;50.65;96107.81;6295658;28;20659;-66
2023/10/07 10:59:01;;;;;;;13.55;8.63;;;;;;;15.38;50.47;96105.88;6277278;28;20056;-66
2023/10/07 11:02:05;;;;;;;11.45;8.27;;;;;;;15.30;50.80;96097.81;6295608;28;20517;-67
2023/10/07 11:05:08;;;;;;;;;;;;;;;15.49;50.36;96087.94;6296005;28;20049;-66
2023/10/07 11:08:12;;;;;;;10.55;7.63;;;;;;;15.46;50.36;96088.22;6277936;28;19964;-67
2023/10/07 11:11:18;;;;;;;12.70;7.43;;;;;;;15.51;50.32;96095.72;6295985;28;20045;-67
2023/10/07 11:14:26;;;;;;;10.88;7.00;;;;;;;15.27;50.86;96098.94;6278397;28;20044;-67
2023/10/07 11:17:27;;;;;;;13.48;7.90;;;;;;;15.07;51.75;96090.25;6295203;28;20056;-67
2023/10/07 11:20:37;;;;;;;11.45;7.05;;;;;;;14.96;52.17;96095.72;6295132;28;20044;-66
2023/10/07 11:23:55;;;;;;;12.70;7.70;;;;;;;14.69;52.99;96081.47;6294768;28;20067;-66
2023/10/07 11:27:02;;;;;;;11.02;7.25;;;;;;;14.43;52.94;96098.91;6294932;28;20423;-66
2023/10/07 11:30:05;;;;;;;10.18;7.50;;;;;;;14.28;52.93;96080.81;6276987;28;20051;-66
2023/10/07 11:33:10;;;;;;;12.18;7.30;;;;;;;14.06;53.74;96081.13;6295388;28;20063;-66
2023/10/07 11:36:11;;;;;;;;;;;;;;;14.09;53.49;96086.97;6294978;28;20423;-66
2023/10/07 11:39:15;;;;;;;12.80;8.25;;;;;;;13.91;54.13;96073.63;6294686;28;19927;-68
2023/10/07 11:42:19;;;;;;;12.75;7.22;;;;;;;13.57;55.36;96065.25;6294472;28;20538;-67
2023/10/07 11:45:26;;;;;;;14.10;6.80;;;;;;;13.46;55.87;96068.84;6295199;28;20044;-67
2023/10/07 11:48:30;;;;;;;11.30;6.78;;;;;;;13.40;56.36;96069.41;6294031;28;20071;-66
2023/10/07 11:51:36;;;;;;;11.95;7.22;;;;;;;13.37;56.43;96061.75;6294236;28;20052;-67
2023/10/07 11:54:39;;;;;;;9.77;6.95;;;;;;;13.34;56.39;96064.69;6293723;28;20412;-67
2023/10/07 11:57:41;;;;;;;11.30;7.53;;;;;;;13.59;55.66;96051.91;6293482;28;20143;-68
2023/10/07 12:00:42;;;;;;;12.00;7.18;;;;;;;13.42;55.96;96046.34;6294057;28;20052;-67
2023/10/07 12:03:44;;;;;;;10.63;6.85;;;;;;;13.33;56.44;96044.50;6293632;28;20064;-67
2023/10/07 12:06:50;;;;;;;9.57;6.13;;;;;;;13.18;56.98;96037.91;6293414;28;20052;-68
2023/10/07 12:09:54;;;;;;;9.68;7.03;;;;;;;13.14;57.31;96036.53;6293687;28;20551;-68
2023/10/07 12:12:59;;;;;;;7.68;6.03;;;;;;;13.15;57.40;96038.19;6293388;28;20040;-67
2023/10/07 12:16:00;;;;;;;11.13;7.30;;;;;;;13.12;57.92;96038.47;6293826;28;20092;-67
2023/10/07 12:19:04;;;;;;;10.15;6.60;;;;;;;13.12;58.30;96033.19;6293806;28;20044;-66
2023/10/07 12:22:07;;;;;;;11.48;7.15;;;;;;;13.12;58.65;96033.19;6292630;28;20432;-66
2023/10/07 12:25:18;;;;;;;11.70;7.43;;;;;;;13.09;58.86;96028.16;6293191;28;20423;-67
2023/10/07 12:28:21;;;;;;;11.88;7.43;;;;;;;13.16;59.00;96024.00;6293382;28;20066;-67
2023/10/07 12:31:23;;;;;;;10.75;6.72;;;;;;;13.16;59.38;96024.00;6293370;28;20054;-67
2023/10/07 12:34:26;;;;;;;9.27;6.15;;;;;;;13.16;59.35;96013.44;6294064;28;20032;-67
2023/10/07 12:37:31;;;;;;;9.45;6.22;;;;;;;13.23;59.45;96019.84;6293382;28;20067;-67
2023/10/07 12:40:32;;;;;;;12.20;7.30;;;;;;;13.33;59.14;96014.59;6292990;28;20131;-67
2023/10/07 12:43:34;;;;;;;9.35;6.35;;;;;;;13.28;59.26;96020.31;6293033;28;20515;-67
2023/10/07 12:46:37;;;;;;;10.27;6.70;;;;;;;13.24;59.36;96018.88;6292984;28;20048;-67
2023/10/07 12:49:45;;;;;;;11.50;7.57;;;;;;;13.29;58.83;96008.75;6293453;28;20447;-67
2023/10/07 12:52:55;;;;;;;11.30;7.20;;;;;;;13.14;58.85;96013.59;6293762;28;20086;-68
2023/10/07 12:55:57;;;;;;;10.20;7.35;;;;;;;13.09;58.96;96022.88;6293210;28;20427;-65
2023/10/07 12:59:01;;;;;;;11.20;7.47;;;;;;;13.06;59.09;96012.59;6292190;28;20384;-67
2023/10/07 13:02:17;;;;;;;10.55;6.45;;;;;;;13.00;59.58;96014.81;6293789;28;20127;-67
2023/10/07 13:05:18;;;;;;;10.00;6.70;;;;;;;13.07;59.60;96003.69;6292210;28;20534;-67
2023/10/07 13:08:27;;;;;;;11.02;7.63;;;;;;;13.03;59.88;96008.41;6293571;28;20940;-66
2023/10/07 13:11:35;;;;;;;12.30;7.97;;;;;;;12.73;60.96;95990.81;6296864;28;20057;-67
2023/10/07 13:14:40;;;;;;;11.65;7.70;;;;;;;12.39;61.79;95985.84;6298489;28;20178;-67
2023/10/07 13:17:46;;;;;;;13.30;9.00;;;;;;;12.32;62.35;95979.44;6298227;28;20052;-66
2023/10/07 13:20:53;;;;;;;12.68;7.75;;;;;;;11.94;63.39;95972.97;6298638;28;20044;-67
2023/10/07 13:23:59;;;;;;;11.07;7.90;;;;;;;11.98;63.71;95958.56;6280320;28;20493;-67
2023/10/07 13:27:04;;;;;;;10.15;7.72;;;;;;;11.82;64.13;95955.53;6298096;28;20040;-67
2023/10/07 13:30:12;;;;;;;14.68;9.07;;;;;;;11.67;64.60;95950.59;6297592;28;20061;-67
2023/10/07 13:33:14;;;;;;;14.70;8.77;;;;;;;11.73;64.71;95956.31;6297609;28;20432;-67
2023/10/07 13:36:18;;;;;;;10.30;7.50;;;;;;;11.51;65.54;95958.09;6297702;28;20067;-67
2023/10/07 13:39:20;;;;;;;9.95;6.43;;;;;;;11.33;66.18;95972.81;6297376;28;20141;-67
2023/10/07 13:42:24;;;;;;;12.55;8.07;;;;;;;11.11;67.18;95974.53;6297357;28;20396;-67
2023/10/07 13:45:28;;;;;;;14.63;8.60;;;;;;;10.99;67.91;95984.28;6297960;28;20044;-67
2023/10/07 13:48:33;;;;;;;12.18;7.35;;;;;;;11.08;68.14;95987.97;6297335;28;20044;-68
2023/10/07 13:51:44;;;;;;;13.00;8.02;;;;;;;11.11;68.75;95985.06;6297556;28;20052;-67
2023/10/07 13:55:13;;;;;;;13.80;8.77;;;;;;;11.00;69.21;95972.78;6297190;28;20044;-66
2023/10/07 13:58:15;;;;;;;15.32;8.48;;;;;;;10.98;69.40;95958.06;6297258;28;20052;-68
2023/10/07 14:01:17;;;;;;;13.65;8.20;;;;;;;10.75;70.15;95958.13;6296455;28;20045;-67
2023/10/07 14:04:19;;;;;;;15.80;8.27;;;;;;;10.60;70.86;95953.25;6296781;28;20041;-68
2023/10/07 14:07:23;;;;;;;13.57;8.40;;;;;;;10.71;71.05;95961.97;6296598;28;20049;-68
2023/10/07 14:10:27;;;;;;;15.63;10.07;;;;;;;10.53;71.62;95947.63;6296992;28;20048;-67
2023/10/07 14:13:35;;;;;;;20.67;10.18;;;;;;;10.53;71.77;95953.75;6297224;28;20048;-69
2023/10/07 14:16:42;;;;;;;17.20;9.43;;;;;;;10.54;72.19;95962.47;6296909;28;20062;-67
2023/10/07 14:19:46;;;;;;;19.35;10.50;;;;;;;10.49;72.20;95962.00;6297413;28;20044;-67
2023/10/07 14:22:48;;;;;;;26.00;12.48;;;;;;;10.53;72.25;95963.41;6295525;28;20127;-67
2023/10/07 14:25:51;;;;;;;22.10;11.52;;;;;;;10.46;72.49;95968.34;6296411;28;20056;-67
2023/10/07 14:28:52;;;;;;;20.88;11.45;;;;;;;10.54;72.39;95957.22;6296352;28;20056;-67
2023/10/07 14:31:57;;;;;;;20.42;11.85;;;;;;;10.63;72.18;95953.00;6295920;28;20048;-67
2023/10/07 14:35:09;;;;;;;27.00;13.38;;;;;;;10.53;72.51;95935.34;6295446;28;20050;-68
2023/10/07 14:38:11;;;;;;;22.25;11.82;;;;;;;10.49;72.64;95930.44;6296204;28;20048;-67
2023/10/07 14:41:15;;;;;;;24.42;12.68;;;;;;;10.53;72.74;95929.22;6296212;28;20052;-68
2023/10/07 14:44:16;;;;;;;;;;;;;;;10.46;72.31;95936.78;6296585;28;20056;-67
2023/10/07 14:47:21;;;;;;;28.27;13.98;;;;;;;10.51;72.66;95928.53;6296596;28;20022;-67
2023/10/07 14:50:25;;;;;;;18.98;12.38;;;;;;;10.66;72.42;95927.28;6296390;28;20048;-67
2023/10/07 14:53:31;;;;;;;;;;;;;;;10.51;72.72;95928.53;6296692;28;20040;-66
2023/10/07 14:56:35;;;;;;;22.65;12.65;;;;;;;10.46;73.13;95935.94;6295385;28;19927;-67
2023/10/07 14:59:40;;;;;;;27.25;13.90;;;;;;;10.44;73.42;95924.69;6296228;28;20040;-68
2023/10/07 15:02:48;;;;;;;25.05;12.75;;;;;;;10.36;73.83;95913.94;6296166;28;20045;-68
2023/10/07 15:05:49;;;;;;;24.10;12.80;;;;;;;10.56;73.24;95910.59;6295152;28;20075;-67
2023/10/07 15:08:53;;;;;;;22.50;12.00;;;;;;;10.48;73.51;95902.47;6295398;28;20573;-67
2023/10/07 15:11:58;;;;;;;25.23;12.30;;;;;;;10.53;73.37;95901.16;6296113;28;20131;-67
2023/10/07 15:15:01;;;;;;;22.75;12.65;;;;;;;10.52;73.66;95904.72;6296053;28;20032;-67